Time;durP1;ratioP1;P1;durP2;ratioP2;P2;SDS_P1;SDS_P2;PMS_P1;PMS_P2;Temp;Humidity;BMP_temperature;BMP_pressure;BME280_temperature;BME280_humidity;BME280_pressure;Samples;Min_cycle;Max_cycle;Signal;HPM_P1;HPM_P2
2023/06/20 00:01:52;;;;;;;25.40;17.83;;;14.80;99.90;;;;;;5045447;28;20045;-72
2023/06/20 00:04:17;;;;;;;24.55;17.58;;;14.70;99.90;;;;;;5061725;28;20061;-75
2023/06/20 00:06:43;;;;;;;22.52;16.33;;;14.60;99.90;;;;;;5042541;28;20068;-78
2023/06/20 00:09:09;;;;;;;22.73;16.90;;;14.60;99.90;;;;;;5061615;28;20053;-72
2023/06/20 00:11:35;;;;;;;21.42;16.05;;;14.50;99.90;;;;;;5062369;28;20037;-74
2023/06/20 00:14:00;;;;;;;24.13;15.82;;;14.40;99.90;;;;;;5091046;28;20052;-77
2023/06/20 00:16:26;;;;;;;23.77;16.10;;;14.30;99.90;;;;;;5091093;28;20165;-78
2023/06/20 00:18:55;;;;;;;20.40;15.52;;;14.20;99.90;;;;;;5062838;28;20059;-74
2023/06/20 00:21:25;;;;;;;20.88;16.08;;;14.20;99.90;;;;;;5062333;28;20040;-78
2023/06/20 00:23:54;;;;;;;23.45;17.02;;;14.10;99.90;;;;;;5095920;28;20601;-81
2023/06/20 00:26:21;;;;;;;22.60;16.08;;;14.10;99.90;;;;;;5062235;28;20048;-79
2023/06/20 00:28:51;;;;;;;27.80;17.35;;;14.10;99.90;;;;;;5062653;28;20044;-76
2023/06/20 00:31:17;;;;;;;26.45;16.27;;;14.20;99.90;;;;;;5062323;28;20051;-75
2023/06/20 00:33:42;;;;;;;26.33;16.67;;;12.00;99.90;;;;;;5061224;28;20053;-81
2023/06/20 00:36:08;;;;;;;22.35;15.77;;;14.20;99.90;;;;;;5061844;28;20062;-76
2023/06/20 00:38:34;;;;;;;22.02;15.38;;;14.30;99.90;;;;;;5061398;28;20109;-73
2023/06/20 00:41:00;;;;;;;23.52;16.55;;;14.40;99.90;;;;;;5061442;28;20040;-72
2023/06/20 00:43:26;;;;;;;24.42;16.27;;;14.50;99.90;;;;;;5061258;28;20875;-74
2023/06/20 00:45:53;;;;;;;21.67;16.67;;;14.50;99.90;;;;;;5061792;28;20049;-78
2023/06/20 00:48:20;;;;;;;24.75;16.27;;;14.50;99.90;;;;;;5043966;28;20577;-76
2023/06/20 00:50:46;;;;;;;22.30;16.17;;;14.50;99.90;;;;;;5077992;28;20056;-75
2023/06/20 00:53:11;;;;;;;21.58;16.85;;;14.50;99.90;;;;;;5043835;28;20052;-79
2023/06/20 00:55:37;;;;;;;24.77;17.17;;;14.60;99.90;;;;;;5056648;28;20555;-79
2023/06/20 00:58:04;;;;;;;23.08;15.88;;;14.60;99.90;;;;;;5060427;28;20068;-79
2023/06/20 01:00:33;;;;;;;19.67;14.82;;;14.60;99.90;;;;;;5060401;28;20048;-75
2023/06/20 01:03:13;;;;;;;17.20;14.00;;;14.70;99.90;;;;;;5059859;28;20103;-73
2023/06/20 01:05:42;;;;;;;21.85;15.02;;;14.70;99.90;;;;;;5086267;28;20063;-78
2023/06/20 01:08:30;;;;;;;21.05;14.70;;;14.60;99.90;;;;;;5089637;28;20063;-76
2023/06/20 01:11:04;;;;;;;23.38;14.75;;;14.60;99.90;;;;;;5089204;28;20056;-72
2023/06/20 01:13:33;;;;;;;23.77;16.38;;;14.50;99.90;;;;;;5043905;28;20130;-76
2023/06/20 01:16:01;;;;;;;25.70;18.10;;;14.50;99.90;;;;;;5060718;28;20052;-76
2023/06/20 01:18:54;;;;;;;31.30;18.45;;;14.50;99.90;;;;;;5074749;28;20048;-76
2023/06/20 01:21:25;;;;;;;23.38;16.15;;;14.60;99.90;;;;;;5091028;28;20852;-73
2023/06/20 01:23:56;;;;;;;23.40;15.60;;;14.60;99.90;;;;;;5059822;28;20439;-77
2023/06/20 01:26:45;;;;;;;28.08;16.80;;;14.60;99.90;;;;;;5043691;28;20076;-73
2023/06/20 01:29:45;;;;;;;27.13;17.10;;;14.70;99.90;;;;;;5040538;28;20055;-77
2023/06/20 01:32:17;;;;;;;24.90;17.13;;;14.80;99.90;;;;;;5048958;28;20056;-81
2023/06/20 01:34:54;;;;;;;27.98;17.92;;;14.80;99.90;;;;;;5059931;28;20052;-72
2023/06/20 01:37:22;;;;;;;32.00;19.52;;;14.90;99.90;;;;;;5089464;28;20044;-73
2023/06/20 01:39:51;;;;;;;28.10;19.73;;;14.90;99.90;;;;;;5087509;28;20052;-73
2023/06/20 01:42:21;;;;;;;28.15;18.40;;;14.90;99.90;;;;;;5043269;28;20891;-71
2023/06/20 01:44:48;;;;;;;27.08;18.70;;;14.90;99.90;;;;;;5093191;28;20056;-75
2023/06/20 01:47:15;;;;;;;28.77;19.35;;;14.90;99.90;;;;;;5060229;28;20049;-75
2023/06/20 01:49:42;;;;;;;31.63;18.05;;;14.90;99.90;;;;;;5060248;28;20095;-79
2023/06/20 01:52:12;;;;;;;31.52;19.17;;;14.80;99.90;;;;;;5060015;28;20053;-70
2023/06/20 01:54:40;;;;;;;29.80;18.50;;;14.80;99.90;;;;;;5069289;28;20053;-75
2023/06/20 01:57:07;;;;;;;33.60;18.80;;;14.80;99.90;;;;;;5090397;28;20056;-73
2023/06/20 01:59:33;;;;;;;34.30;20.40;;;14.80;99.90;;;;;;5043086;28;20155;-74
2023/06/20 02:01:59;;;;;;;34.67;21.13;;;14.80;99.90;;;;;;5093934;28;20041;-76
2023/06/20 02:04:26;;;;;;;35.17;21.58;;;14.80;99.90;;;;;;5059294;28;20056;-74
2023/06/20 02:06:53;;;;;;;39.25;22.48;;;14.90;99.90;;;;;;5088532;28;20096;-80
2023/06/20 02:09:19;;;;;;;33.38;20.58;;;14.90;99.90;;;;;;5035775;28;20056;-73
2023/06/20 02:11:47;;;;;;;34.63;22.90;;;14.80;99.90;;;;;;5060699;28;20119;-73
2023/06/20 02:14:14;;;;;;;40.33;22.52;;;14.90;99.90;;;;;;5034718;28;20049;-76
2023/06/20 02:16:41;;;;;;;36.22;23.13;;;14.90;99.90;;;;;;5087546;28;20041;-76
2023/06/20 02:19:07;;;;;;;41.65;23.25;;;14.90;99.90;;;;;;5060122;28;20166;-74
2023/06/20 02:21:37;;;;;;;39.13;22.73;;;14.80;99.90;;;;;;5077586;28;20143;-76
2023/06/20 02:24:05;;;;;;;32.58;22.58;;;14.80;99.90;;;;;;5052983;28;20052;-77
2023/06/20 02:26:34;;;;;;;31.35;21.42;;;14.80;99.90;;;;;;5058624;28;20083;-73
2023/06/20 02:29:07;;;;;;;42.00;23.48;;;14.80;99.90;;;;;;5059853;28;20063;-77
2023/06/20 02:31:36;;;;;;;34.35;23.85;;;14.80;99.90;;;;;;5060938;28;20099;-76
2023/06/20 02:34:06;;;;;;;34.92;22.42;;;14.80;99.90;;;;;;5060106;28;20668;-75
2023/06/20 02:36:33;;;;;;;29.52;21.23;;;14.80;99.90;;;;;;5059723;28;20133;-75
2023/06/20 02:38:59;;;;;;;32.20;21.27;;;14.80;99.90;;;;;;5059763;28;20056;-76
2023/06/20 02:41:25;;;;;;;38.80;23.40;;;14.80;99.90;;;;;;5092088;28;20040;-72
2023/06/20 02:43:51;;;;;;;32.47;22.73;;;14.80;99.90;;;;;;5058811;28;20055;-74
2023/06/20 02:46:35;;;;;;;32.63;22.23;;;14.80;99.90;;;;;;5059224;28;20056;-76
2023/06/20 02:49:41;;;;;;;34.90;21.92;;;14.90;99.90;;;;;;5089469;28;20098;-74
2023/06/20 02:52:10;;;;;;;33.50;22.40;;;14.80;99.90;;;;;;5070385;28;20053;-78
2023/06/20 02:55:28;;;;;;;33.80;24.17;;;14.80;99.90;;;;;;5088662;28;20044;-74
2023/06/20 02:57:58;;;;;;;36.25;21.75;;;14.80;99.90;;;;;;5045652;28;20064;-71
2023/06/20 03:00:25;;;;;;;34.47;22.40;;;14.80;99.90;;;;;;5054745;28;20052;-71
2023/06/20 03:03:09;;;;;;;38.97;24.17;;;14.80;99.90;;;;;;5059226;28;20049;-73
2023/06/20 03:05:38;;;;;;;36.08;22.45;;;14.80;99.90;;;;;;5058608;28;20056;-77
2023/06/20 03:08:06;;;;;;;40.55;23.90;;;14.80;99.90;;;;;;5059515;28;20639;-72
2023/06/20 03:10:32;;;;;;;43.35;23.85;;;14.80;99.90;;;;;;5059910;28;20052;-74
2023/06/20 03:12:59;;;;;;;48.80;25.65;;;14.80;99.90;;;;;;5062657;28;20494;-76
2023/06/20 03:15:26;;;;;;;39.33;24.02;;;14.80;99.90;;;;;;5061592;28;20536;-72
2023/06/20 03:17:52;;;;;;;45.15;25.70;;;14.80;99.90;;;;;;5061750;28;20802;-76
2023/06/20 03:20:18;;;;;;;32.78;22.55;;;14.80;99.90;;;;;;5062164;28;20063;-74
2023/06/20 03:22:44;;;;;;;29.08;21.15;;;14.80;99.90;;;;;;5045200;28;20052;-72
2023/06/20 03:25:09;;;;;;;35.50;23.95;;;14.80;99.90;;;;;;5089104;28;20052;-76
2023/06/20 03:27:35;;;;;;;29.33;23.17;;;14.80;99.90;;;;;;5091014;28;20041;-78
2023/06/20 03:30:03;;;;;;;30.48;24.00;;;14.90;99.90;;;;;;5062010;28;20063;-77
2023/06/20 03:32:29;;;;;;;32.80;22.48;;;14.90;99.90;;;;;;5060574;28;20797;-72
2023/06/20 03:34:55;;;;;;;34.08;25.58;;;14.90;99.90;;;;;;5039546;28;20079;-73
2023/06/20 03:37:21;;;;;;;33.15;24.15;;;15.00;99.90;;;;;;5095665;28;20509;-76
2023/06/20 03:39:47;;;;;;;32.10;23.27;;;15.10;99.90;;;;;;5094712;28;20040;-74
2023/06/20 03:42:13;;;;;;;28.98;22.52;;;15.20;99.90;;;;;;5045252;28;20048;-76
2023/06/20 03:44:43;;;;;;;33.13;24.08;;;15.20;99.90;;;;;;5062520;28;20044;-78
2023/06/20 03:47:10;;;;;;;31.88;22.75;;;15.30;99.90;;;;;;5063527;28;20040;-75
2023/06/20 03:49:37;;;;;;;31.58;23.00;;;15.40;99.90;;;;;;5064605;28;20114;-79
2023/06/20 03:52:03;;;;;;;35.75;25.52;;;15.40;99.90;;;;;;5063291;28;20057;-76
2023/06/20 03:54:29;;;;;;;31.52;23.33;;;15.40;99.90;;;;;;5060714;28;20058;-78
2023/06/20 03:56:54;;;;;;;32.45;24.13;;;15.50;99.90;;;;;;5061654;28;20044;-77
2023/06/20 03:59:20;;;;;;;31.02;23.73;;;15.50;99.90;;;;;;5048202;28;20075;-79
2023/06/20 04:01:46;;;;;;;27.27;23.45;;;15.50;99.90;;;;;;5060680;28;20056;-76
2023/06/20 04:04:13;;;;;;;29.58;22.90;;;15.50;99.90;;;;;;5061034;28;20056;-76
2023/06/20 04:06:40;;;;;;;30.80;21.90;;;15.50;99.90;;;;;;5061915;28;20051;-76
2023/06/20 04:09:05;;;;;;;30.05;23.15;;;15.50;99.90;;;;;;5061329;28;20175;-75
2023/06/20 04:11:31;;;;;;;31.52;23.60;;;15.50;99.90;;;;;;5092511;28;20507;-79
2023/06/20 04:13:57;;;;;;;32.63;23.35;;;15.50;99.90;;;;;;5094355;28;20057;-74
2023/06/20 04:16:23;;;;;;;29.42;21.98;;;15.60;99.90;;;;;;5061344;28;20776;-77
2023/06/20 04:18:49;;;;;;;31.77;23.38;;;15.60;99.90;;;;;;5091102;28;20048;-74
2023/06/20 04:21:16;;;;;;;36.83;23.95;;;15.60;99.90;;;;;;5084991;28;20121;-77
2023/06/20 04:23:42;;;;;;;32.35;23.77;;;15.60;99.90;;;;;;5060915;28;20102;-76
2023/06/20 04:26:08;;;;;;;30.80;24.05;;;15.70;99.90;;;;;;5057412;28;20056;-77
2023/06/20 04:28:35;;;;;;;33.50;23.30;;;15.70;99.90;;;;;;5008545;28;20115;-78
2023/06/20 04:31:02;;;;;;;30.40;22.30;;;15.80;99.90;;;;;;4969148;28;20751;-76
2023/06/20 04:33:29;;;;;;;36.75;23.95;;;15.90;99.90;;;;;;4982543;28;20242;-77
2023/06/20 04:35:58;;;;;;;34.00;23.33;;;15.90;99.90;;;;;;4996491;28;20597;-76
2023/06/20 04:38:24;;;;;;;30.30;23.73;;;15.90;99.90;;;;;;4991401;28;20085;-82
2023/06/20 04:40:51;;;;;;;32.70;23.92;;;14.20;99.90;;;;;;4997067;28;20143;-76
2023/06/20 04:43:22;;;;;;;30.73;23.45;;;15.90;99.90;;;;;;5016763;28;20064;-79
2023/06/20 04:45:48;;;;;;;31.27;23.02;;;16.00;99.90;;;;;;4979763;28;20057;-79
2023/06/20 04:48:17;;;;;;;30.58;23.65;;;16.00;99.90;;;;;;4980113;28;20061;-76
2023/06/20 04:50:44;;;;;;;31.40;22.42;;;16.10;99.90;;;;;;4986922;28;20455;-81
2023/06/20 04:53:10;;;;;;;27.50;22.38;;;16.30;99.90;;;;;;4993574;28;20066;-79
2023/06/20 04:55:38;;;;;;;28.75;21.25;;;16.40;99.90;;;;;;5012260;28;20138;-74
2023/06/20 04:58:04;;;;;;;27.38;22.45;;;16.60;99.90;;;;;;5027747;28;20069;-79
2023/06/20 05:00:30;;;;;;;27.10;20.67;;;16.70;99.90;;;;;;5040578;28;20052;-75
2023/06/20 05:02:58;;;;;;;26.67;20.33;;;16.90;99.90;;;;;;5023072;28;20045;-73
2023/06/20 05:05:29;;;;;;;25.98;19.75;;;17.00;99.90;;;;;;5023602;28;20065;-74
2023/06/20 05:07:56;;;;;;;24.88;20.55;;;17.20;99.90;;;;;;5037320;28;20506;-78
2023/06/20 05:10:23;;;;;;;25.55;20.48;;;17.40;99.90;;;;;;5023117;28;20064;-73
2023/06/20 05:12:49;;;;;;;25.88;19.15;;;17.60;99.90;;;;;;5038954;28;20080;-73
2023/06/20 05:15:15;;;;;;;25.50;19.77;;;17.80;99.90;;;;;;5036224;28;20053;-75
2023/06/20 05:17:40;;;;;;;23.83;18.77;;;18.10;99.90;;;;;;5039567;28;20109;-75
2023/06/20 05:20:07;;;;;;;26.75;20.20;;;18.40;99.90;;;;;;5040019;28;20139;-75
2023/06/20 05:22:35;;;;;;;22.73;17.75;;;18.80;99.90;;;;;;5037831;28;20080;-78
2023/06/20 05:25:02;;;;;;;19.67;15.50;;;19.10;99.90;;;;;;5039645;28;20134;-72
2023/06/20 05:27:28;;;;;;;18.20;15.90;;;19.40;99.60;;;;;;5022230;28;20061;-73
2023/06/20 05:29:54;;;;;;;19.50;14.88;;;19.70;98.80;;;;;;5039622;28;20065;-81
2023/06/20 05:32:20;;;;;;;19.02;13.93;;;19.80;98.20;;;;;;5022408;28;20048;-78
2023/06/20 05:34:46;;;;;;;17.20;13.55;;;19.90;97.70;;;;;;5022947;28;20502;-73
2023/06/20 05:37:12;;;;;;;15.60;12.98;;;17.60;96.70;;;;;;5040307;28;20049;-75
2023/06/20 05:39:38;;;;;;;15.30;12.38;;;20.00;96.80;;;;;;5021319;28;20130;-77
2023/06/20 05:42:05;;;;;;;14.60;12.27;;;20.00;96.40;;;;;;5040835;28;20052;-75
2023/06/20 05:44:33;;;;;;;16.48;12.90;;;20.00;95.80;;;;;;5034714;28;20084;-79
2023/06/20 05:47:00;;;;;;;16.35;12.55;;;20.70;95.90;;;;;;5041032;28;20053;-77
2023/06/20 05:49:27;;;;;;;16.13;11.82;;;19.90;95.60;;;;;;5020385;28;20212;-72
2023/06/20 05:51:54;;;;;;;14.43;10.88;;;19.80;95.50;;;;;;5035350;28;20053;-79
2023/06/20 05:54:22;;;;;;;14.88;11.68;;;19.80;95.30;;;;;;5032708;28;20064;-73
2023/06/20 05:56:49;;;;;;;12.32;11.02;;;19.90;95.20;;;;;;5040999;28;20057;-77
2023/06/20 05:59:15;;;;;;;13.38;10.80;;;20.00;95.10;;;;;;5041712;28;20864;-72
2023/06/20 06:01:41;;;;;;;19.80;10.88;;;20.10;95.00;;;;;;5038822;28;20067;-73
2023/06/20 06:04:07;;;;;;;16.95;10.65;;;20.10;94.80;;;;;;5024830;28;20056;-74
2023/06/20 06:06:33;;;;;;;16.25;10.77;;;20.20;94.80;;;;;;5040105;28;20052;-78
2023/06/20 06:08:59;;;;;;;16.88;11.10;;;20.20;94.80;;;;;;5036660;28;20048;-76
2023/06/20 06:11:26;;;;;;;17.58;11.52;;;20.30;94.60;;;;;;5019980;28;20057;-75
2023/06/20 06:13:52;;;;;;;16.88;11.40;;;20.30;94.50;;;;;;5022521;28;20067;-73
2023/06/20 06:16:18;;;;;;;14.98;10.48;;;20.10;94.30;;;;;;5036881;28;20057;-76
2023/06/20 06:18:45;;;;;;;12.45;10.80;;;22.80;95.00;;;;;;5026233;28;20114;-76
2023/06/20 06:21:11;;;;;;;14.40;11.27;;;20.20;94.40;;;;;;5022508;28;20055;-74
2023/06/20 06:23:38;;;;;;;15.85;11.25;;;20.20;94.40;;;;;;5039266;28;20045;-75
2023/06/20 06:26:05;;;;;;;12.27;10.30;;;20.20;94.60;;;;;;5023767;28;20053;-76
2023/06/20 06:28:31;;;;;;;13.68;11.90;;;20.20;94.60;;;;;;5039672;28;20045;-75
2023/06/20 06:31:01;;;;;;;15.02;11.27;;;20.30;94.40;;;;;;5036865;28;20118;-72
2023/06/20 06:33:31;;;;;;;12.70;10.43;;;20.30;94.40;;;;;;5041942;28;20059;-78
2023/06/20 06:35:59;;;;;;;13.65;10.60;;;20.40;94.40;;;;;;5023408;28;20453;-78
2023/06/20 06:38:26;;;;;;;13.65;9.90;;;20.50;94.30;;;;;;5042414;28;20063;-78
2023/06/20 06:40:54;;;;;;;12.27;9.90;;;20.70;94.20;;;;;;5025876;28;20147;-78
2023/06/20 06:43:21;;;;;;;14.35;9.75;;;20.90;93.90;;;;;;5024713;28;20056;-75
2023/06/20 06:45:47;;;;;;;16.60;9.98;;;21.20;93.50;;;;;;5020081;28;20502;-78
2023/06/20 06:48:13;;;;;;;15.98;9.48;;;21.70;93.30;;;;;;5044020;28;20702;-77
2023/06/20 06:50:39;;;;;;;11.93;9.02;;;22.10;92.70;;;;;;5045614;28;20055;-78
2023/06/20 06:53:06;;;;;;;12.95;10.07;;;22.40;92.40;;;;;;5045442;28;20506;-79
2023/06/20 06:55:35;;;;;;;10.82;9.68;;;22.60;91.80;;;;;;5041052;28;20053;-76
2023/06/20 06:58:02;;;;;;;13.05;9.25;;;22.60;91.20;;;;;;5022018;28;20541;-76
2023/06/20 07:00:29;;;;;;;12.73;10.65;;;22.70;91.10;;;;;;5023923;28;20049;-75
2023/06/20 07:02:56;;;;;;;16.67;10.10;;;22.90;90.70;;;;;;5024225;28;20056;-76
2023/06/20 07:05:26;;;;;;;13.50;9.70;;;23.20;90.30;;;;;;5026544;28;20625;-76
2023/06/20 07:07:54;;;;;;;14.35;9.80;;;23.50;90.00;;;;;;5046176;28;20514;-74
2023/06/20 07:10:20;;;;;;;13.90;10.27;;;23.90;89.10;;;;;;5042775;28;20056;-80
2023/06/20 07:12:46;;;;;;;19.38;10.25;;;24.30;87.30;;;;;;5025482;28;20052;-78
2023/06/20 07:15:12;;;;;;;11.75;10.43;;;24.50;86.00;;;;;;5024021;28;20560;-80
2023/06/20 07:17:38;;;;;;;11.05;8.75;;;24.50;84.90;;;;;;5044242;28;20148;-72
2023/06/20 07:20:08;;;;;;;10.77;9.27;;;24.40;84.90;;;;;;5045983;28;20057;-75
2023/06/20 07:22:33;;;;;;;10.48;8.98;;;24.40;85.10;;;;;;5044335;28;20081;-79
2023/06/20 07:25:01;;;;;;;12.95;11.02;;;24.30;85.40;;;;;;5041662;28;20109;-75
2023/06/20 07:27:27;;;;;;;11.80;10.38;;;24.20;84.90;;;;;;5017969;28;20136;-77
2023/06/20 07:29:54;;;;;;;11.27;10.07;;;23.90;84.80;;;;;;5035471;28;20051;-76
2023/06/20 07:32:24;;;;;;;11.45;9.95;;;23.70;85.60;;;;;;5021409;28;20521;-75
2023/06/20 07:34:51;;;;;;;15.38;11.02;;;23.50;86.30;;;;;;5042156;28;20068;-76
2023/06/20 07:37:18;;;;;;;12.25;10.00;;;23.30;86.90;;;;;;5037124;28;20057;-78
2023/06/20 07:39:49;;;;;;;12.27;10.45;;;23.00;87.10;;;;;;5023939;28;20084;-78
2023/06/20 07:42:16;;;;;;;11.52;10.43;;;22.80;87.80;;;;;;5037474;28;20049;-77
2023/06/20 07:44:44;;;;;;;15.93;11.18;;;22.60;88.80;;;;;;5020843;28;20145;-81
2023/06/20 07:47:13;;;;;;;13.38;10.00;;;22.50;89.10;;;;;;5035549;28;20070;-78
2023/06/20 07:49:41;;;;;;;11.45;10.23;;;22.50;89.50;;;;;;5022018;28;20083;-78
2023/06/20 07:52:09;;;;;;;13.57;10.15;;;22.50;89.80;;;;;;5016924;28;20073;-74
2023/06/20 07:54:37;;;;;;;11.20;10.10;;;22.60;90.00;;;;;;5018080;28;20742;-79
2023/06/20 07:57:06;;;;;;;12.38;10.40;;;22.60;89.80;;;;;;5021437;28;20072;-76
2023/06/20 07:59:34;;;;;;;12.02;10.85;;;22.60;90.00;;;;;;5035724;28;20116;-77
2023/06/20 08:02:02;;;;;;;12.60;11.02;;;22.60;89.90;;;;;;5018984;28;20047;-80
2023/06/20 08:04:29;;;;;;;17.48;11.32;;;22.60;90.20;;;;;;5023747;28;20204;-80
2023/06/20 08:07:01;;;;;;;15.55;12.27;;;22.50;90.20;;;;;;5032249;28;20132;-79
2023/06/20 08:09:29;;;;;;;14.90;11.40;;;22.40;90.30;;;;;;5021871;28;20488;-79
2023/06/20 08:11:59;;;;;;;15.02;12.40;;;22.30;90.50;;;;;;5022896;28;20037;-78
2023/06/20 08:14:34;;;;;;;12.88;11.57;;;22.10;90.60;;;;;;5039155;28;20629;-80
2023/06/20 08:17:09;;;;;;;12.93;11.27;;;22.20;90.70;;;;;;5001412;28;20052;-77
2023/06/20 08:19:40;;;;;;;16.75;11.13;;;22.20;90.90;;;;;;5032387;28;20072;-73
2023/06/20 08:22:06;;;;;;;14.07;11.18;;;22.20;91.10;;;;;;5013095;28;20128;-79
2023/06/20 08:24:33;;;;;;;12.07;10.85;;;22.30;91.10;;;;;;5027347;28;20083;-76
2023/06/20 08:27:03;;;;;;;12.65;11.13;;;22.40;91.20;;;;;;5013188;28;20106;-74
2023/06/20 08:29:31;;;;;;;13.20;11.77;;;22.50;91.20;;;;;;5018453;28;20041;-79
2023/06/20 08:31:57;;;;;;;11.98;10.77;;;22.70;91.00;;;;;;5013501;28;20073;-79
2023/06/20 08:34:27;;;;;;;11.43;10.23;;;22.80;90.80;;;;;;5032504;28;20080;-78
2023/06/20 08:36:54;;;;;;;12.15;9.13;;;22.90;90.60;;;;;;5034637;28;20045;-78
2023/06/20 08:39:22;;;;;;;12.25;9.38;;;23.20;90.60;;;;;;5040020;28;20156;-78
2023/06/20 08:41:54;;;;;;;11.48;9.55;;;23.90;90.20;;;;;;5038659;28;20053;-77
2023/06/20 08:44:21;;;;;;;9.65;8.15;;;24.70;88.50;;;;;;5035109;28;20041;-77
2023/06/20 08:46:57;;;;;;;9.60;8.02;;;26.20;86.10;;;;;;5035818;28;20106;-75
2023/06/20 08:49:27;;;;;;;10.48;8.25;;;27.00;82.60;;;;;;5022739;28;20056;-77
2023/06/20 08:52:00;;;;;;;11.40;8.65;;;27.80;79.80;;;;;;5018361;28;20036;-78
2023/06/20 08:54:35;;;;;;;11.63;8.40;;;28.40;77.60;;;;;;5040249;28;20477;-76
2023/06/20 08:57:01;;;;;;;9.57;8.00;;;29.30;75.70;;;;;;5021030;28;20041;-77
2023/06/20 08:59:37;;;;;;;9.32;8.10;;;30.40;72.60;;;;;;5022356;28;20049;-79
2023/06/20 09:02:07;;;;;;;12.35;8.13;;;30.60;69.80;;;;;;5020412;28;20073;-77
2023/06/20 09:04:37;;;;;;;11.75;8.07;;;31.10;68.70;;;;;;5023203;28;20053;-76
2023/06/20 09:07:21;;;;;;;9.07;8.18;;;31.30;66.80;;;;;;5020987;28;20099;-76
2023/06/20 09:09:49;;;;;;;8.27;7.47;;;30.40;65.60;;;;;;5018496;28;20566;-77
2023/06/20 09:12:20;;;;;;;9.48;7.45;;;29.20;67.90;;;;;;5023278;28;20091;-74
2023/06/20 09:14:51;;;;;;;9.82;7.40;;;28.40;69.30;;;;;;5039268;28;20045;-74
2023/06/20 09:17:19;;;;;;;7.50;6.53;;;27.80;70.50;;;;;;5033201;28;20049;-75
2023/06/20 09:19:46;;;;;;;7.72;6.85;;;27.40;71.70;;;;;;5031943;28;20049;-76
2023/06/20 09:22:17;;;;;;;8.85;7.35;;;27.20;72.50;;;;;;5039640;28;20518;-74
2023/06/20 09:24:45;;;;;;;9.70;7.50;;;27.10;72.60;;;;;;5038535;28;20102;-79
2023/06/20 09:27:15;;;;;;;9.43;7.75;;;27.20;73.00;;;;;;5018642;28;20068;-77
2023/06/20 09:29:53;;;;;;;9.00;8.10;;;27.20;72.80;;;;;;5031909;28;20052;-78
2023/06/20 09:32:23;;;;;;;9.57;8.65;;;27.20;72.80;;;;;;5036836;28;20049;-78
2023/06/20 09:34:52;;;;;;;9.10;8.13;;;27.30;73.10;;;;;;5032238;28;20045;-75
2023/06/20 09:37:21;;;;;;;10.93;8.00;;;27.40;73.40;;;;;;5014830;28;20057;-73
2023/06/20 09:39:51;;;;;;;10.70;7.22;;;27.50;72.90;;;;;;5039785;28;20457;-78
2023/06/20 09:42:19;;;;;;;9.65;8.10;;;27.40;72.10;;;;;;5013466;28;20045;-74
2023/06/20 09:44:47;;;;;;;8.88;7.88;;;27.40;72.40;;;;;;5016568;28;20044;-76
2023/06/20 09:47:15;;;;;;;9.93;7.15;;;27.50;72.40;;;;;;5035607;28;20132;-73
2023/06/20 09:49:43;;;;;;;9.98;7.88;;;27.70;72.50;;;;;;5051478;28;20107;-78
2023/06/20 09:52:14;;;;;;;8.60;7.75;;;27.90;72.20;;;;;;5030503;28;20052;-77
2023/06/20 09:54:49;;;;;;;9.45;6.65;;;28.10;71.10;;;;;;5008387;28;20114;-75
2023/06/20 09:57:26;;;;;;;8.73;6.63;;;28.10;70.80;;;;;;5031610;28;20073;-76
2023/06/20 09:59:57;;;;;;;9.00;6.55;;;28.40;70.50;;;;;;5014981;28;20076;-78
2023/06/20 10:02:25;;;;;;;6.93;6.22;;;28.90;71.00;;;;;;5050083;28;20077;-74
2023/06/20 10:04:59;;;;;;;5.93;5.28;;;29.40;70.10;;;;;;5010468;28;20063;-76
2023/06/20 10:07:29;;;;;;;7.03;6.32;;;29.80;68.70;;;;;;5017739;28;20136;-76
2023/06/20 10:09:58;;;;;;;7.47;5.10;;;30.30;68.60;;;;;;5007450;28;20387;-77
2023/06/20 10:12:25;;;;;;;8.13;6.18;;;31.00;67.20;;;;;;5033956;28;20053;-74
2023/06/20 10:15:10;;;;;;;7.18;6.47;;;31.60;65.90;;;;;;5031104;28;20522;-75
2023/06/20 10:17:46;;;;;;;5.00;4.10;;;32.60;64.10;;;;;;5034125;28;20044;-77
2023/06/20 10:20:34;;;;;;;7.43;4.63;;;33.50;62.00;;;;;;5016374;28;20093;-73
2023/06/20 10:23:05;;;;;;;6.72;6.03;;;33.80;62.50;;;;;;5028651;28;20115;-71
2023/06/20 10:25:48;;;;;;;5.53;4.32;;;34.10;60.60;;;;;;5011789;28;20049;-77
2023/06/20 10:28:20;;;;;;;9.10;5.55;;;34.40;60.70;;;;;;5023368;28;20104;-77
2023/06/20 10:30:46;;;;;;;6.28;4.85;;;34.10;59.40;;;;;;5033746;28;20576;-78
2023/06/20 10:33:23;;;;;;;4.85;4.13;;;34.10;59.60;;;;;;5045465;28;20056;-77
2023/06/20 10:35:57;;;;;;;4.68;4.10;;;33.90;59.90;;;;;;5017752;28;20049;-80
2023/06/20 10:38:24;;;;;;;5.57;4.05;;;33.50;59.40;;;;;;5034077;28;20392;-77
2023/06/20 10:41:06;;;;;;;4.97;4.03;;;32.90;59.30;;;;;;5038878;28;20100;-77
2023/06/20 10:44:10;;;;;;;6.28;4.53;;;32.70;59.00;;;;;;5011084;28;20463;-77
2023/06/20 10:46:37;;;;;;;5.53;4.30;;;32.30;59.60;;;;;;4979916;28;20056;-77
2023/06/20 10:49:06;;;;;;;4.80;3.80;;;32.10;59.90;;;;;;5037638;28;20049;-75
2023/06/20 10:51:57;;;;;;;4.40;3.95;;;31.90;60.60;;;;;;5028460;28;20045;-73
2023/06/20 10:54:33;;;;;;;4.70;3.75;;;31.50;61.30;;;;;;5027199;28;20044;-74
2023/06/20 10:57:00;;;;;;;5.05;4.55;;;31.00;61.30;;;;;;5031708;28;20515;-77
2023/06/20 10:59:28;;;;;;;4.35;3.95;;;30.50;62.90;;;;;;5032533;28;20134;-78
2023/06/20 11:01:57;;;;;;;5.97;4.88;;;30.10;63.40;;;;;;5020530;28;20052;-76
2023/06/20 11:04:30;;;;;;;9.25;5.30;;;29.70;63.90;;;;;;5034164;28;20158;-79
2023/06/20 11:07:09;;;;;;;5.95;4.93;;;29.50;64.80;;;;;;5020717;28;20134;-80
2023/06/20 11:09:40;;;;;;;5.95;4.50;;;29.30;65.10;;;;;;5038188;28;20440;-77
2023/06/20 11:12:07;;;;;;;5.95;4.63;;;29.20;66.20;;;;;;5033425;28;20052;-77
2023/06/20 11:14:36;;;;;;;6.07;5.00;;;29.30;66.10;;;;;;5017253;28;20037;-79
2023/06/20 11:17:06;;;;;;;6.20;4.55;;;29.40;66.90;;;;;;5019070;28;20053;-79
2023/06/20 11:19:37;;;;;;;6.72;5.43;;;29.20;66.70;;;;;;5017838;28;20088;-81
2023/06/20 11:22:06;;;;;;;4.68;4.25;;;29.30;66.50;;;;;;5001750;28;20350;-77
2023/06/20 11:24:35;;;;;;;5.07;4.57;;;29.30;67.10;;;;;;5017093;28;20046;-77
2023/06/20 11:27:14;;;;;;;6.28;4.68;;;29.70;66.20;;;;;;5037477;28;20061;-79
2023/06/20 11:29:45;;;;;;;5.05;3.80;;;29.50;65.00;;;;;;5029511;28;20560;-79
2023/06/20 11:32:11;;;;;;;5.03;4.35;;;29.30;64.90;;;;;;5035753;28;20529;-76
2023/06/20 11:35:03;;;;;;;4.22;3.83;;;29.20;66.00;;;;;;5041503;28;20083;-77
2023/06/20 11:37:31;;;;;;;5.30;3.97;;;29.00;66.50;;;;;;5018985;28;20805;-78
2023/06/20 11:39:58;;;;;;;4.45;4.05;;;28.90;66.30;;;;;;5005937;28;20049;-78
2023/06/20 11:42:24;;;;;;;4.32;3.80;;;28.70;64.40;;;;;;5033898;28;20592;-79
2023/06/20 11:44:50;;;;;;;6.90;4.28;;;28.70;65.10;;;;;;5040878;28;20099;-74
2023/06/20 11:47:16;;;;;;;4.53;4.03;;;28.70;65.10;;;;;;5029996;28;20578;-82
2023/06/20 11:49:42;;;;;;;4.78;4.22;;;28.50;64.80;;;;;;5038697;28;20060;-75
2023/06/20 11:52:08;;;;;;;6.05;4.43;;;28.40;66.20;;;;;;5022282;28;20049;-79
2023/06/20 11:54:56;;;;;;;6.13;4.32;;;28.40;66.30;;;;;;5040353;28;20048;-81
2023/06/20 11:57:26;;;;;;;4.90;4.40;;;28.40;66.10;;;;;;5040027;28;20105;-75
2023/06/20 11:59:59;;;;;;;5.45;4.18;;;28.40;65.50;;;;;;5035301;28;20198;-80
2023/06/20 12:02:26;;;;;;;4.60;4.10;;;28.50;65.90;;;;;;5041204;28;20558;-78
2023/06/20 12:04:58;;;;;;;5.80;3.97;;;28.40;65.60;;;;;;5040779;28;20075;-79
2023/06/20 12:07:26;;;;;;;6.55;4.57;;;28.50;66.00;;;;;;5040947;28;20049;-78
2023/06/20 12:09:52;;;;;;;8.30;4.07;;;28.70;65.30;;;;;;5037895;28;20053;-79
2023/06/20 12:12:18;;;;;;;6.40;3.95;;;28.90;65.10;;;;;;5037866;28;20059;-77
2023/06/20 12:14:47;;;;;;;5.10;4.40;;;28.90;65.40;;;;;;5036094;28;20061;-79
2023/06/20 12:17:13;;;;;;;5.82;4.40;;;28.90;64.90;;;;;;5037361;28;20068;-81
2023/06/20 12:19:53;;;;;;;4.45;4.05;;;28.80;65.10;;;;;;5038466;28;20174;-80
2023/06/20 12:22:19;;;;;;;6.50;3.95;;;28.60;65.20;;;;;;5042140;28;20053;-77
2023/06/20 12:24:45;;;;;;;6.38;4.38;;;28.50;65.60;;;;;;5030556;28;20136;-77
2023/06/20 12:27:11;;;;;;;5.68;4.70;;;28.50;65.50;;;;;;5021123;28;20114;-77
2023/06/20 12:29:37;;;;;;;6.07;4.22;;;28.40;65.40;;;;;;5039178;28;20672;-78
2023/06/20 12:32:04;;;;;;;4.32;3.45;;;28.40;66.20;;;;;;5037566;28;20135;-75
2023/06/20 12:34:29;;;;;;;3.80;3.25;;;28.40;66.10;;;;;;5039922;28;20048;-76
2023/06/20 12:36:55;;;;;;;4.55;3.22;;;28.40;65.80;;;;;;5040198;28;20064;-74
2023/06/20 12:39:21;;;;;;;4.70;3.20;;;28.50;65.20;;;;;;5038950;28;20073;-77
2023/06/20 12:41:47;;;;;;;5.32;3.20;;;28.50;64.90;;;;;;5037548;28;20049;-78
2023/06/20 12:44:12;;;;;;;6.13;3.00;;;28.60;64.60;;;;;;5032475;28;20055;-80